createdAt,value
2022-08-11T00:02:04.780Z,4.93
2022-08-11T00:04:38.423Z,4.45
2022-08-11T00:07:10.202Z,5.13
2022-08-11T00:09:41.449Z,8.15
2022-08-11T00:12:18.667Z,5.10
2022-08-11T00:14:56.937Z,3.50
2022-08-11T00:17:34.413Z,7.07
2022-08-11T00:20:16.496Z,5.68
2022-08-11T00:22:49.086Z,3.58
2022-08-11T00:25:22.043Z,5.80
2022-08-11T00:27:52.601Z,3.85
2022-08-11T00:30:22.772Z,2.80
2022-08-11T00:33:00.036Z,3.47
2022-08-11T00:35:55.614Z,4.03
2022-08-11T00:38:27.342Z,6.07
2022-08-11T00:41:10.446Z,7.68
2022-08-11T00:44:21.709Z,2.08
2022-08-11T00:47:28.607Z,2.20
2022-08-11T00:50:29.239Z,3.00
2022-08-11T00:53:36.877Z,3.55
2022-08-11T00:56:47.142Z,2.08
2022-08-11T00:59:45.119Z,3.92
2022-08-11T01:02:47.834Z,5.57
2022-08-11T01:05:39.897Z,1.98
2022-08-11T01:08:35.028Z,2.00
2022-08-11T01:11:20.289Z,2.50
2022-08-11T01:14:33.581Z,4.57
2022-08-11T01:17:56.512Z,2.55
2022-08-11T01:21:08.917Z,2.88
2022-08-11T01:24:20.890Z,4.68
2022-08-11T01:30:17.904Z,5.75
2022-08-11T01:33:38.806Z,9.05
2022-08-11T01:36:14.662Z,18.92
2022-08-11T01:39:26.418Z,16.33
2022-08-11T01:42:37.896Z,13.35
2022-08-11T01:46:01.890Z,9.98
2022-08-11T01:48:49.935Z,8.10
2022-08-11T01:51:33.670Z,8.07
2022-08-11T01:54:33.131Z,5.22
2022-08-11T01:57:37.945Z,2.20
2022-08-11T02:00:20.606Z,4.65
2022-08-11T02:02:55.559Z,4.20
2022-08-11T02:05:49.340Z,4.22
2022-08-11T02:08:33.432Z,4.35
2022-08-11T02:11:35.325Z,3.00
2022-08-11T02:14:29.035Z,2.17
2022-08-11T02:17:27.894Z,5.72
2022-08-11T02:20:40.435Z,3.65
2022-08-11T02:24:05.508Z,2.20
2022-08-11T02:26:40.299Z,3.58
2022-08-11T02:29:30.564Z,3.55
2022-08-11T02:32:47.116Z,1.52
2022-08-11T02:35:43.720Z,2.40
2022-08-11T02:38:47.098Z,2.22
2022-08-11T02:42:34.907Z,3.15
2022-08-11T02:45:27.567Z,4.05
2022-08-11T02:48:27.171Z,3.70
2022-08-11T02:51:22.282Z,4.78
2022-08-11T02:54:44.109Z,2.97
2022-08-11T02:57:35.149Z,4.65
2022-08-11T03:00:17.776Z,3.88
2022-08-11T03:03:09.290Z,8.25
2022-08-11T03:06:02.258Z,5.15
2022-08-11T03:08:52.373Z,2.30
2022-08-11T03:12:02.045Z,4.93
2022-08-11T03:15:21.920Z,5.60
2022-08-11T03:18:05.755Z,7.90
2022-08-11T03:21:12.481Z,8.77
2022-08-11T03:23:52.205Z,8.40
2022-08-11T03:26:48.117Z,5.70
2022-08-11T03:29:44.981Z,5.13
2022-08-11T03:32:32.306Z,6.30
2022-08-11T03:35:06.825Z,7.88
2022-08-11T03:38:12.269Z,5.18
2022-08-11T03:42:01.825Z,5.80
2022-08-11T03:44:47.951Z,7.53
2022-08-11T03:47:27.340Z,3.60
2022-08-11T03:50:29.855Z,2.47
2022-08-11T03:53:00.434Z,3.35
2022-08-11T03:55:59.287Z,3.85
2022-08-11T03:58:56.937Z,5.75
2022-08-11T04:01:39.193Z,5.40
2022-08-11T04:04:31.172Z,5.65
2022-08-11T04:07:32.415Z,8.25
2022-08-11T04:10:53.716Z,6.95
2022-08-11T04:13:56.805Z,6.82
2022-08-11T04:16:59.949Z,5.75
2022-08-11T04:20:06.444Z,6.03
2022-08-11T04:22:45.779Z,7.28
2022-08-11T04:25:58.414Z,8.65
2022-08-11T04:29:13.183Z,5.78
2022-08-11T04:32:03.197Z,3.72
2022-08-11T04:35:01.179Z,5.07
2022-08-11T04:37:59.918Z,5.13
2022-08-11T04:41:05.126Z,5.68
2022-08-11T04:44:05.852Z,4.38
2022-08-11T04:46:55.547Z,5.10
2022-08-11T04:50:37.255Z,3.95
2022-08-11T04:54:08.266Z,8.38
2022-08-11T04:56:58.218Z,10.07
2022-08-11T05:00:08.054Z,8.13
2022-08-11T05:03:14.974Z,7.45
2022-08-11T05:06:28.328Z,8.60
2022-08-11T05:09:32.815Z,9.32
2022-08-11T05:12:27.284Z,10.77
2022-08-11T05:15:17.507Z,8.80
2022-08-11T05:18:33.190Z,7.97
2022-08-11T05:21:28.276Z,8.65
2022-08-11T05:24:33.497Z,4.82
2022-08-11T05:27:25.693Z,5.80
2022-08-11T05:30:34.526Z,7.05
2022-08-11T05:33:30.437Z,6.40
2022-08-11T05:36:13.704Z,7.78
2022-08-11T05:39:16.750Z,6.72
2022-08-11T05:42:06.150Z,6.93
2022-08-11T05:44:58.316Z,6.95
2022-08-11T05:47:47.824Z,6.88
2022-08-11T05:50:38.389Z,5.40
2022-08-11T05:53:40.218Z,5.57
2022-08-11T05:56:34.045Z,6.63
2022-08-11T05:59:04.814Z,6.22
2022-08-11T06:01:35.944Z,6.28
2022-08-11T06:04:18.136Z,6.88
2022-08-11T06:07:10.175Z,6.85
2022-08-11T06:09:48.138Z,7.43
2022-08-11T06:12:34.771Z,7.45
2022-08-11T06:15:08.324Z,7.90
2022-08-11T06:17:47.533Z,5.80
2022-08-11T06:20:20.886Z,6.38
2022-08-11T06:22:58.999Z,4.28
2022-08-11T06:25:34.249Z,5.30
2022-08-11T06:28:09.746Z,5.80
2022-08-11T06:30:43.731Z,5.15
2022-08-11T06:33:48.633Z,6.38
2022-08-11T06:36:29.960Z,4.90
2022-08-11T06:39:11.931Z,5.70
2022-08-11T06:41:51.672Z,6.00
2022-08-11T06:44:31.637Z,6.25
2022-08-11T06:47:12.730Z,6.85
2022-08-11T06:50:05.020Z,7.38
2022-08-11T06:52:41.875Z,6.45
2022-08-11T06:55:56.816Z,7.45
2022-08-11T06:58:53.719Z,6.13
2022-08-11T07:01:38.493Z,5.05
2022-08-11T07:04:11.996Z,4.95
2022-08-11T07:07:34.478Z,5.22
2022-08-11T07:10:59.123Z,5.30
2022-08-11T07:13:50.489Z,5.03
2022-08-11T07:16:29.463Z,4.20
2022-08-11T07:19:28.211Z,4.32
2022-08-11T07:22:20.913Z,5.25
2022-08-11T07:25:22.339Z,6.20
2022-08-11T07:28:33.078Z,4.88
2022-08-11T07:31:08.499Z,3.75
2022-08-11T07:34:05.821Z,4.55
2022-08-11T07:36:41.674Z,4.28
2022-08-11T07:39:19.322Z,3.40
2022-08-11T07:41:51.125Z,4.38
2022-08-11T07:44:23.080Z,2.72
2022-08-11T07:47:14.087Z,2.50
2022-08-11T07:50:05.350Z,2.70
2022-08-11T07:52:39.241Z,2.50
2022-08-11T07:55:19.709Z,2.55
2022-08-11T07:58:15.974Z,3.17
2022-08-11T08:01:22.485Z,2.30
2022-08-11T08:04:11.357Z,3.00
2022-08-11T08:07:00.174Z,4.25
2022-08-11T08:09:53.612Z,2.92
2022-08-11T08:12:44.967Z,2.40
2022-08-11T08:15:34.825Z,2.70
2022-08-11T08:18:09.408Z,2.75
2022-08-11T08:21:12.949Z,2.58
2022-08-11T08:23:53.851Z,3.08
2022-08-11T08:26:51.260Z,2.72
2022-08-11T08:29:41.517Z,3.08
2022-08-11T08:32:14.238Z,3.42
2022-08-11T08:34:45.731Z,2.58
2022-08-11T08:37:47.028Z,3.30
2022-08-11T08:40:10.846Z,3.10
2022-08-11T08:42:56.049Z,2.70
2022-08-11T08:45:28.510Z,2.92
2022-08-11T08:48:05.527Z,2.47
2022-08-11T08:50:57.236Z,2.40
2022-08-11T08:53:33.980Z,3.03
2022-08-11T08:56:06.083Z,2.95
2022-08-11T08:58:40.243Z,2.83
2022-08-11T09:01:12.804Z,5.03
2022-08-11T09:04:06.631Z,4.85
2022-08-11T09:06:34.623Z,2.95
2022-08-11T09:09:06.069Z,3.22
2022-08-11T09:11:56.483Z,2.53
2022-08-11T09:14:51.854Z,2.40
2022-08-11T09:17:24.766Z,2.22
2022-08-11T09:20:01.760Z,3.42
2022-08-11T09:23:24.272Z,2.97
2022-08-11T09:26:05.094Z,5.47
2022-08-11T09:28:37.885Z,3.17
2022-08-11T09:31:08.776Z,3.25
2022-08-11T09:33:39.938Z,3.67
2022-08-11T09:36:32.772Z,3.58
2022-08-11T09:39:24.709Z,2.47
2022-08-11T09:42:02.908Z,2.35
2022-08-11T09:44:52.754Z,2.53
2022-08-11T09:47:30.050Z,3.83
2022-08-11T09:50:03.055Z,2.65
2022-08-11T09:52:44.883Z,2.40
2022-08-11T09:55:23.620Z,2.30
2022-08-11T09:58:41.906Z,2.38
2022-08-11T10:01:28.120Z,2.20
2022-08-11T10:04:19.311Z,2.40
2022-08-11T10:07:05.102Z,2.20
2022-08-11T10:09:40.843Z,2.33
2022-08-11T10:12:26.274Z,2.55
2022-08-11T10:15:20.983Z,3.13
2022-08-11T10:18:15.464Z,3.35
2022-08-11T10:20:53.597Z,4.03
2022-08-11T10:24:01.495Z,4.53
2022-08-11T10:26:53.800Z,5.47
2022-08-11T10:29:51.078Z,3.35
2022-08-11T10:32:57.706Z,3.97
2022-08-11T10:35:33.006Z,3.85
2022-08-11T10:38:07.485Z,3.97
2022-08-11T10:40:42.483Z,4.47
2022-08-11T10:44:02.026Z,6.57
2022-08-11T10:46:30.797Z,4.43
2022-08-11T10:49:02.892Z,5.22
2022-08-11T10:51:53.766Z,5.07
2022-08-11T10:54:43.518Z,6.43
2022-08-11T10:57:34.578Z,6.13
2022-08-11T11:00:08.056Z,5.63
2022-08-11T11:02:41.849Z,5.85
2022-08-11T11:05:29.310Z,5.10
2022-08-11T11:08:33.801Z,6.22
2022-08-11T11:11:06.141Z,5.45
2022-08-11T11:13:57.344Z,7.05
2022-08-11T11:16:47.187Z,5.85
2022-08-11T11:19:21.907Z,4.35
2022-08-11T11:22:16.944Z,6.43
2022-08-11T11:25:11.720Z,4.95
2022-08-11T11:28:06.187Z,7.57
2022-08-11T11:31:28.750Z,6.22
2022-08-11T11:34:31.544Z,5.32
2022-08-11T11:37:03.614Z,5.47
2022-08-11T11:39:35.430Z,5.43
2022-08-11T11:42:09.090Z,7.03
2022-08-11T11:44:40.927Z,7.85
2022-08-11T11:47:14.433Z,9.77
2022-08-11T11:49:46.570Z,8.77
2022-08-11T11:52:20.118Z,8.35
2022-08-11T11:54:54.515Z,10.15
2022-08-11T11:57:59.254Z,8.23
2022-08-11T12:00:51.231Z,7.53
2022-08-11T12:03:22.727Z,6.18
2022-08-11T12:05:54.521Z,6.28
2022-08-11T12:08:28.404Z,7.28
2022-08-11T12:11:22.374Z,7.85
2022-08-11T12:13:55.521Z,6.70
2022-08-11T12:16:33.991Z,6.63
2022-08-11T12:19:12.847Z,7.10
2022-08-11T12:22:02.550Z,5.80
2022-08-11T12:24:53.629Z,7.97
2022-08-11T12:27:25.741Z,7.93
2022-08-11T12:29:59.656Z,8.13
2022-08-11T12:32:33.104Z,8.45
2022-08-11T12:35:04.751Z,8.20
2022-08-11T12:37:49.193Z,9.30
2022-08-11T12:41:14.811Z,8.52
2022-08-11T12:43:57.109Z,8.25
2022-08-11T12:46:43.972Z,9.90
2022-08-11T12:49:45.373Z,8.90
2022-08-11T12:52:22.839Z,10.48
2022-08-11T12:58:08.096Z,8.27
2022-08-11T13:00:57.010Z,9.25
2022-08-11T13:03:52.445Z,8.18
2022-08-11T13:06:27.932Z,11.25
2022-08-11T13:09:01.453Z,10.48
2022-08-11T13:11:56.955Z,12.82
2022-08-11T13:14:29.220Z,11.57
2022-08-11T13:17:43.489Z,10.00
2022-08-11T13:20:16.224Z,5.20
2022-08-11T13:22:51.240Z,9.35
2022-08-11T13:25:25.839Z,8.20
2022-08-11T13:28:01.293Z,7.47
2022-08-11T13:30:52.142Z,5.53
2022-08-11T13:33:23.136Z,4.22
2022-08-11T13:35:56.977Z,2.85
2022-08-11T13:38:27.649Z,4.35
2022-08-11T13:40:58.594Z,4.05
2022-08-11T13:43:29.994Z,2.15
2022-08-11T13:46:18.987Z,3.53
2022-08-11T13:48:51.442Z,3.53
2022-08-11T13:51:34.368Z,4.18
2022-08-11T13:54:10.711Z,3.40
2022-08-11T13:59:16.068Z,4.15
2022-08-11T14:02:19.836Z,4.38
2022-08-11T14:04:50.942Z,5.10
2022-08-11T14:07:24.481Z,4.63
2022-08-11T14:10:02.207Z,3.92
2022-08-11T14:12:55.675Z,5.70
2022-08-11T14:15:34.518Z,3.83
2022-08-11T14:18:07.410Z,5.28
2022-08-11T14:21:00.667Z,4.63
2022-08-11T14:23:39.020Z,2.88
2022-08-11T14:26:30.295Z,2.88
2022-08-11T14:29:04.945Z,3.67
2022-08-11T14:31:37.271Z,2.40
2022-08-11T14:34:13.691Z,3.03
2022-08-11T14:36:52.235Z,3.00
2022-08-11T14:39:39.628Z,3.22
2022-08-11T14:42:29.487Z,3.72
2022-08-11T14:45:05.523Z,1.60
2022-08-11T14:47:41.144Z,3.22
2022-08-11T14:50:19.487Z,3.08
2022-08-11T14:52:57.686Z,4.75
2022-08-11T14:55:52.076Z,3.85
2022-08-11T14:58:26.845Z,3.38
2022-08-11T15:01:00.258Z,2.40
2022-08-11T15:03:32.894Z,3.38
2022-08-11T15:06:06.198Z,1.35
2022-08-11T15:08:56.425Z,1.23
2022-08-11T15:11:51.080Z,4.60
2022-08-11T15:14:41.439Z,1.98
2022-08-11T15:17:14.120Z,4.47
2022-08-11T15:20:04.244Z,6.07
2022-08-11T15:22:52.812Z,3.58
2022-08-11T15:25:23.088Z,2.70
2022-08-11T15:28:13.891Z,2.53
2022-08-11T15:31:11.700Z,4.68
2022-08-11T15:34:03.901Z,4.40
2022-08-11T15:36:54.502Z,6.07
2022-08-11T15:39:30.653Z,3.45
2022-08-11T15:42:33.107Z,5.20
2022-08-11T15:45:25.982Z,3.70
2022-08-11T15:48:05.232Z,3.30
2022-08-11T15:50:47.821Z,4.82
2022-08-11T15:53:57.153Z,4.47
2022-08-11T15:56:30.722Z,2.63
2022-08-11T15:59:41.578Z,4.70
2022-08-11T16:02:19.034Z,3.33
2022-08-11T16:04:51.209Z,5.05
2022-08-11T16:07:40.426Z,5.82
2022-08-11T16:13:07.656Z,6.28
2022-08-11T16:16:04.653Z,2.22
2022-08-11T16:18:51.657Z,6.78
2022-08-11T16:21:35.011Z,3.35
2022-08-11T16:26:30.439Z,6.72
2022-08-11T16:27:13.187Z,3.30
2022-08-11T16:29:47.735Z,5.57
2022-08-11T16:32:24.682Z,6.55
2022-08-11T16:35:22.071Z,2.42
2022-08-11T16:38:13.386Z,4.38
2022-08-11T16:40:45.525Z,9.70
2022-08-11T16:43:37.341Z,6.10
2022-08-11T16:46:27.672Z,7.15
2022-08-11T16:49:00.282Z,3.88
2022-08-11T16:51:30.793Z,6.28
2022-08-11T16:54:05.344Z,6.70
2022-08-11T16:56:51.975Z,7.88
2022-08-11T16:59:32.274Z,5.90
2022-08-11T17:02:11.736Z,5.78
2022-08-11T17:05:10.861Z,4.50
2022-08-11T17:08:04.554Z,5.03
2022-08-11T17:11:03.280Z,7.30
2022-08-11T17:13:57.717Z,4.35
2022-08-11T17:16:42.542Z,8.35
2022-08-11T17:19:17.661Z,7.95
2022-08-11T17:22:10.980Z,7.28
2022-08-11T17:24:47.972Z,6.25
2022-08-11T17:27:22.404Z,5.75
2022-08-11T17:30:07.595Z,6.22
2022-08-11T17:33:05.160Z,4.72
2022-08-11T17:35:42.756Z,6.95
2022-08-11T17:38:19.729Z,6.20
2022-08-11T17:41:15.787Z,6.55
2022-08-11T17:44:15.503Z,4.07
2022-08-11T17:47:06.502Z,3.85
2022-08-11T17:49:42.540Z,5.03
2022-08-11T17:52:35.243Z,6.40
2022-08-11T17:55:52.213Z,4.72
2022-08-11T17:58:42.970Z,4.35
2022-08-11T18:01:15.836Z,9.45
2022-08-11T18:03:57.540Z,2.67
2022-08-11T18:06:34.179Z,3.42
2022-08-11T18:09:36.877Z,10.93
2022-08-11T18:12:29.114Z,9.23
2022-08-11T18:15:18.734Z,6.07
2022-08-11T18:18:08.536Z,8.38
2022-08-11T18:20:57.428Z,6.72
2022-08-11T18:23:47.332Z,6.32
2022-08-11T18:26:43.136Z,7.25
2022-08-11T18:29:45.337Z,12.35
2022-08-11T18:33:39.969Z,4.68
2022-08-11T18:36:15.413Z,12.63
2022-08-11T18:39:08.386Z,12.38
2022-08-11T18:41:59.015Z,9.73
2022-08-11T18:44:52.328Z,4.72
2022-08-11T18:47:43.291Z,5.05
2022-08-11T18:50:39.647Z,5.45
2022-08-11T18:53:32.075Z,6.22
2022-08-11T18:56:22.076Z,8.48
2022-08-11T18:59:11.943Z,6.65
2022-08-11T19:02:02.345Z,5.65
2022-08-11T19:04:51.784Z,5.53
2022-08-11T19:07:41.640Z,5.15
2022-08-11T19:10:31.924Z,5.75
2022-08-11T19:13:22.345Z,9.07
2022-08-11T19:16:13.094Z,5.20
2022-08-11T19:19:04.609Z,7.35
2022-08-11T19:21:55.310Z,2.20
2022-08-11T19:24:49.269Z,3.80
2022-08-11T19:27:40.323Z,3.55
2022-08-11T19:30:30.563Z,2.75
2022-08-11T19:33:59.799Z,3.50
2022-08-11T19:36:31.438Z,1.88
2022-08-11T19:39:21.154Z,4.85
2022-08-11T19:42:11.185Z,2.60
2022-08-11T19:45:03.312Z,5.68
2022-08-11T19:48:14.157Z,4.82
2022-08-11T19:51:03.509Z,4.50
2022-08-11T19:53:54.364Z,5.80
2022-08-11T19:56:43.612Z,4.25
2022-08-11T19:59:34.061Z,3.45
2022-08-11T20:02:22.930Z,6.35
2022-08-11T20:05:11.728Z,4.90
2022-08-11T20:08:01.109Z,2.15
2022-08-11T20:10:51.640Z,3.60
2022-08-11T20:13:42.696Z,5.55
2022-08-11T20:16:36.114Z,3.20
2022-08-11T20:19:25.940Z,2.75
2022-08-11T20:22:36.899Z,4.18
2022-08-11T20:25:27.140Z,4.13
2022-08-11T20:28:16.313Z,4.57
2022-08-11T20:31:06.590Z,2.47
2022-08-11T20:33:56.849Z,2.78
2022-08-11T20:36:52.492Z,6.30
2022-08-11T20:39:44.778Z,2.72
2022-08-11T20:42:34.159Z,2.40
2022-08-11T20:45:24.593Z,2.90
2022-08-11T20:48:16.223Z,2.50
2022-08-11T20:51:11.025Z,5.35
2022-08-11T20:54:07.706Z,2.00
2022-08-11T20:56:57.928Z,4.88
2022-08-11T20:59:56.292Z,3.28
2022-08-11T21:02:49.974Z,1.95
2022-08-11T21:06:09.646Z,2.15
2022-08-11T21:08:54.134Z,4.35
2022-08-11T21:11:45.511Z,3.25
2022-08-11T21:14:34.598Z,2.80
2022-08-11T21:17:27.708Z,3.33
2022-08-11T21:20:24.289Z,1.95
2022-08-11T21:23:26.279Z,1.60
2022-08-11T21:26:22.869Z,1.58
2022-08-11T21:29:14.133Z,2.28
2022-08-11T21:32:04.756Z,2.03
2022-08-11T21:34:54.755Z,2.95
2022-08-11T21:37:50.195Z,2.75
2022-08-11T21:40:39.891Z,1.30
2022-08-11T21:43:30.702Z,2.53
2022-08-11T21:46:20.157Z,1.25
2022-08-11T21:49:10.822Z,3.45
2022-08-11T21:52:04.733Z,1.50
2022-08-11T21:54:53.719Z,1.08
2022-08-11T21:57:48.009Z,3.45
2022-08-11T22:00:39.016Z,4.13
2022-08-11T22:03:28.318Z,1.95
2022-08-11T22:06:19.823Z,0.95
2022-08-11T22:09:09.692Z,2.40
2022-08-11T22:12:29.203Z,2.60
2022-08-11T22:15:07.561Z,1.08
2022-08-11T22:17:58.042Z,1.45
2022-08-11T22:20:47.728Z,4.32
2022-08-11T22:23:37.975Z,3.15
2022-08-11T22:29:15.790Z,1.80
2022-08-11T22:32:04.698Z,2.00
2022-08-11T22:34:54.423Z,2.30
2022-08-11T22:37:44.056Z,3.92
2022-08-11T22:40:33.444Z,2.75
2022-08-11T22:43:22.392Z,3.05
2022-08-11T22:46:10.756Z,5.95
2022-08-11T22:49:00.310Z,2.78
2022-08-11T22:51:49.126Z,2.55
2022-08-11T22:54:40.332Z,1.38
2022-08-11T22:57:29.822Z,3.55
2022-08-11T23:00:20.668Z,2.78
2022-08-11T23:03:10.218Z,2.83
2022-08-11T23:06:09.950Z,4.20
2022-08-11T23:08:58.863Z,1.35
2022-08-11T23:12:05.931Z,2.92
2022-08-11T23:14:56.901Z,2.50
2022-08-11T23:17:47.786Z,3.08
2022-08-11T23:20:39.842Z,1.75
2022-08-11T23:23:30.517Z,2.42
2022-08-11T23:26:20.710Z,1.63
2022-08-11T23:29:11.715Z,0.60
2022-08-11T23:32:01.019Z,1.80
2022-08-11T23:35:04.849Z,2.13
2022-08-11T23:38:04.747Z,1.60
2022-08-11T23:40:53.531Z,1.95
2022-08-11T23:43:43.468Z,1.52
2022-08-11T23:46:34.407Z,1.42
2022-08-11T23:49:23.599Z,1.00
2022-08-11T23:52:12.899Z,1.17
2022-08-11T23:55:02.907Z,1.27
2022-08-11T23:57:52.976Z,2.63
